sensor_id;sensor_type;location;lat;lon;timestamp;P1;durP1;ratioP1;P2;durP2;ratioP2
21800;SDS011;11062;51.164;16.924;2023-07-29T04:10:35;448.23;;;117.28;;
21800;SDS011;11062;51.164;16.924;2023-07-29T04:57:58;305.42;;;110.60;;
21800;SDS011;11062;51.164;16.924;2023-07-29T10:22:07;360.45;;;189.73;;
21800;SDS011;11062;51.164;16.924;2023-07-29T11:15:13;345.98;;;199.27;;
21800;SDS011;11062;51.164;16.924;2023-07-29T11:21:41;363.23;;;196.93;;
21800;SDS011;11062;51.164;16.924;2023-07-29T11:34:51;424.35;;;201.35;;
21800;SDS011;11062;51.164;16.924;2023-07-29T11:42:01;355.38;;;192.27;;
21800;SDS011;11062;51.164;16.924;2023-07-29T11:49:02;356.13;;;181.23;;
21800;SDS011;11062;51.164;16.924;2023-07-29T12:54:51;355.70;;;175.35;;
21800;SDS011;11062;51.164;16.924;2023-07-29T13:19:56;364.42;;;168.55;;
21800;SDS011;11062;51.164;16.924;2023-07-29T13:23:41;336.25;;;163.88;;
21800;SDS011;11062;51.164;16.924;2023-07-29T13:27:17;353.35;;;171.32;;
21800;SDS011;11062;51.164;16.924;2023-07-29T13:54:58;456.05;;;275.45;;
21800;SDS011;11062;51.164;16.924;2023-07-29T14:02:37;419.85;;;336.75;;
21800;SDS011;11062;51.164;16.924;2023-07-29T14:06:40;368.13;;;330.58;;
21800;SDS011;11062;51.164;16.924;2023-07-29T14:10:46;464.98;;;406.42;;
21800;SDS011;11062;51.164;16.924;2023-07-29T14:13:42;361.48;;;293.10;;
21800;SDS011;11062;51.164;16.924;2023-07-29T14:17:02;429.52;;;315.75;;
21800;SDS011;11062;51.164;16.924;2023-07-29T14:20:32;486.55;;;418.63;;
21800;SDS011;11062;51.164;16.924;2023-07-29T14:24:09;329.25;;;176.13;;
21800;SDS011;11062;51.164;16.924;2023-07-29T14:27:35;469.60;;;389.38;;
21800;SDS011;11062;51.164;16.924;2023-07-29T14:30:50;423.73;;;323.45;;
21800;SDS011;11062;51.164;16.924;2023-07-29T14:34:04;376.05;;;303.55;;
21800;SDS011;11062;51.164;16.924;2023-07-29T14:41:35;375.80;;;240.70;;
21800;SDS011;11062;51.164;16.924;2023-07-29T14:45:12;420.00;;;278.08;;
21800;SDS011;11062;51.164;16.924;2023-07-29T14:48:21;405.05;;;301.17;;
21800;SDS011;11062;51.164;16.924;2023-07-29T14:55:12;353.35;;;202.85;;
21800;SDS011;11062;51.164;16.924;2023-07-29T14:58:48;386.75;;;211.23;;
21800;SDS011;11062;51.164;16.924;2023-07-29T15:13:16;421.55;;;271.73;;
21800;SDS011;11062;51.164;16.924;2023-07-29T15:15:42;350.20;;;195.05;;
21800;SDS011;11062;51.164;16.924;2023-07-29T15:18:09;429.02;;;346.40;;
21800;SDS011;11062;51.164;16.924;2023-07-29T15:20:41;350.60;;;150.32;;
21800;SDS011;11062;51.164;16.924;2023-07-29T15:23:07;422.27;;;292.35;;
21800;SDS011;11062;51.164;16.924;2023-07-29T15:25:33;334.38;;;162.93;;
21800;SDS011;11062;51.164;16.924;2023-07-29T15:28:04;348.95;;;176.80;;
21800;SDS011;11062;51.164;16.924;2023-07-29T15:30:30;337.10;;;166.35;;
21800;SDS011;11062;51.164;16.924;2023-07-29T15:32:56;325.02;;;146.80;;
21800;SDS011;11062;51.164;16.924;2023-07-29T15:35:25;328.42;;;152.02;;
21800;SDS011;11062;51.164;16.924;2023-07-29T15:37:54;331.95;;;155.93;;
21800;SDS011;11062;51.164;16.924;2023-07-29T15:40:24;363.48;;;218.20;;
21800;SDS011;11062;51.164;16.924;2023-07-29T15:42:55;428.92;;;325.50;;
21800;SDS011;11062;51.164;16.924;2023-07-29T15:45:25;345.23;;;160.57;;
21800;SDS011;11062;51.164;16.924;2023-07-29T15:48:03;325.83;;;162.05;;
21800;SDS011;11062;51.164;16.924;2023-07-29T15:50:31;391.65;;;287.38;;
21800;SDS011;11062;51.164;16.924;2023-07-29T15:52:57;320.60;;;146.13;;
21800;SDS011;11062;51.164;16.924;2023-07-29T15:55:23;313.65;;;137.27;;
21800;SDS011;11062;51.164;16.924;2023-07-29T15:57:51;384.30;;;229.95;;
21800;SDS011;11062;51.164;16.924;2023-07-29T16:00:20;390.98;;;251.43;;
21800;SDS011;11062;51.164;16.924;2023-07-29T16:02:54;330.60;;;135.93;;
21800;SDS011;11062;51.164;16.924;2023-07-29T16:05:24;324.60;;;136.27;;
21800;SDS011;11062;51.164;16.924;2023-07-29T16:07:52;366.35;;;226.77;;
21800;SDS011;11062;51.164;16.924;2023-07-29T16:10:24;457.23;;;343.90;;
21800;SDS011;11062;51.164;16.924;2023-07-29T16:12:50;411.42;;;261.67;;
21800;SDS011;11062;51.164;16.924;2023-07-29T16:15:18;358.50;;;170.93;;
21800;SDS011;11062;51.164;16.924;2023-07-29T16:17:44;315.83;;;131.93;;
21800;SDS011;11062;51.164;16.924;2023-07-29T16:20:17;328.25;;;138.98;;
21800;SDS011;11062;51.164;16.924;2023-07-29T16:22:51;318.05;;;137.63;;
21800;SDS011;11062;51.164;16.924;2023-07-29T16:25:20;338.48;;;139.30;;
21800;SDS011;11062;51.164;16.924;2023-07-29T16:27:46;321.85;;;138.80;;
21800;SDS011;11062;51.164;16.924;2023-07-29T16:30:13;313.65;;;137.43;;
21800;SDS011;11062;51.164;16.924;2023-07-29T16:32:44;318.50;;;137.20;;
21800;SDS011;11062;51.164;16.924;2023-07-29T16:35:14;324.13;;;136.77;;
21800;SDS011;11062;51.164;16.924;2023-07-29T16:37:41;324.90;;;139.80;;
21800;SDS011;11062;51.164;16.924;2023-07-29T16:40:07;316.13;;;130.82;;
21800;SDS011;11062;51.164;16.924;2023-07-29T16:42:39;326.55;;;133.73;;
21800;SDS011;11062;51.164;16.924;2023-07-29T16:45:08;326.88;;;139.35;;
21800;SDS011;11062;51.164;16.924;2023-07-29T16:47:37;329.25;;;134.45;;
21800;SDS011;11062;51.164;16.924;2023-07-29T16:50:04;320.30;;;137.73;;
21800;SDS011;11062;51.164;16.924;2023-07-29T16:52:30;314.25;;;138.25;;
21800;SDS011;11062;51.164;16.924;2023-07-29T16:54:56;321.48;;;138.52;;
21800;SDS011;11062;51.164;16.924;2023-07-29T16:57:22;311.33;;;134.88;;
21800;SDS011;11062;51.164;16.924;2023-07-29T16:59:53;326.88;;;139.30;;
21800;SDS011;11062;51.164;16.924;2023-07-29T17:02:19;316.73;;;138.60;;
21800;SDS011;11062;51.164;16.924;2023-07-29T17:04:48;307.10;;;134.98;;
21800;SDS011;11062;51.164;16.924;2023-07-29T17:07:17;329.42;;;142.43;;
21800;SDS011;11062;51.164;16.924;2023-07-29T17:09:52;310.92;;;130.80;;
21800;SDS011;11062;51.164;16.924;2023-07-29T17:12:19;324.40;;;130.20;;
21800;SDS011;11062;51.164;16.924;2023-07-29T17:14:45;309.17;;;128.15;;
21800;SDS011;11062;51.164;16.924;2023-07-29T17:17:14;309.77;;;129.35;;
21800;SDS011;11062;51.164;16.924;2023-07-29T17:19:43;319.73;;;135.98;;
21800;SDS011;11062;51.164;16.924;2023-07-29T17:22:12;332.05;;;136.98;;
21800;SDS011;11062;51.164;16.924;2023-07-29T17:24:39;319.95;;;136.02;;
21800;SDS011;11062;51.164;16.924;2023-07-29T17:27:05;321.67;;;146.75;;
21800;SDS011;11062;51.164;16.924;2023-07-29T17:29:31;332.80;;;149.70;;
21800;SDS011;11062;51.164;16.924;2023-07-29T17:31:58;335.40;;;152.30;;
21800;SDS011;11062;51.164;16.924;2023-07-29T17:34:33;325.08;;;151.10;;
21800;SDS011;11062;51.164;16.924;2023-07-29T17:37:01;329.67;;;156.32;;
21800;SDS011;11062;51.164;16.924;2023-07-29T17:39:28;336.17;;;159.15;;
21800;SDS011;11062;51.164;16.924;2023-07-29T17:41:54;338.83;;;162.65;;
21800;SDS011;11062;51.164;16.924;2023-07-29T17:44:26;329.02;;;160.98;;
21800;SDS011;11062;51.164;16.924;2023-07-29T17:47:03;334.58;;;163.75;;
21800;SDS011;11062;51.164;16.924;2023-07-29T17:49:32;322.88;;;149.73;;
21800;SDS011;11062;51.164;16.924;2023-07-29T17:51:58;328.98;;;157.13;;
21800;SDS011;11062;51.164;16.924;2023-07-29T17:54:29;331.52;;;151.98;;
21800;SDS011;11062;51.164;16.924;2023-07-29T17:56:59;328.20;;;148.10;;
21800;SDS011;11062;51.164;16.924;2023-07-29T17:59:26;325.42;;;154.77;;
21800;SDS011;11062;51.164;16.924;2023-07-29T18:02:03;317.05;;;143.52;;
21800;SDS011;11062;51.164;16.924;2023-07-29T18:04:32;321.35;;;142.52;;
21800;SDS011;11062;51.164;16.924;2023-07-29T18:07:01;326.73;;;147.15;;
21800;SDS011;11062;51.164;16.924;2023-07-29T18:09:29;336.60;;;142.98;;
21800;SDS011;11062;51.164;16.924;2023-07-29T18:11:56;331.30;;;144.27;;
21800;SDS011;11062;51.164;16.924;2023-07-29T18:14:27;324.08;;;139.93;;
21800;SDS011;11062;51.164;16.924;2023-07-29T18:16:58;316.80;;;135.02;;
21800;SDS011;11062;51.164;16.924;2023-07-29T18:19:24;333.70;;;140.00;;
21800;SDS011;11062;51.164;16.924;2023-07-29T18:21:55;333.02;;;139.70;;
21800;SDS011;11062;51.164;16.924;2023-07-29T18:24:22;319.50;;;138.98;;
21800;SDS011;11062;51.164;16.924;2023-07-29T18:26:53;327.85;;;143.57;;
21800;SDS011;11062;51.164;16.924;2023-07-29T18:29:22;326.05;;;132.32;;
21800;SDS011;11062;51.164;16.924;2023-07-29T18:31:54;320.70;;;140.60;;
21800;SDS011;11062;51.164;16.924;2023-07-29T18:34:23;330.58;;;138.77;;
21800;SDS011;11062;51.164;16.924;2023-07-29T18:36:49;319.83;;;135.25;;
21800;SDS011;11062;51.164;16.924;2023-07-29T18:39:15;322.25;;;138.55;;
21800;SDS011;11062;51.164;16.924;2023-07-29T18:41:46;315.52;;;131.70;;
21800;SDS011;11062;51.164;16.924;2023-07-29T18:44:12;311.48;;;132.50;;
21800;SDS011;11062;51.164;16.924;2023-07-29T18:46:38;329.60;;;128.80;;
21800;SDS011;11062;51.164;16.924;2023-07-29T18:49:04;323.60;;;130.95;;
21800;SDS011;11062;51.164;16.924;2023-07-29T18:51:34;326.17;;;130.52;;
21800;SDS011;11062;51.164;16.924;2023-07-29T18:54:01;336.42;;;131.13;;
21800;SDS011;11062;51.164;16.924;2023-07-29T18:56:30;317.08;;;130.68;;
21800;SDS011;11062;51.164;16.924;2023-07-29T18:58:59;327.30;;;135.98;;
21800;SDS011;11062;51.164;16.924;2023-07-29T19:01:28;328.08;;;132.68;;
21800;SDS011;11062;51.164;16.924;2023-07-29T19:03:54;325.70;;;135.07;;
21800;SDS011;11062;51.164;16.924;2023-07-29T19:06:23;327.48;;;137.80;;
21800;SDS011;11062;51.164;16.924;2023-07-29T19:08:52;325.27;;;133.32;;
21800;SDS011;11062;51.164;16.924;2023-07-29T19:11:18;321.17;;;133.85;;
21800;SDS011;11062;51.164;16.924;2023-07-29T19:13:47;366.42;;;141.60;;
21800;SDS011;11062;51.164;16.924;2023-07-29T19:16:19;327.35;;;133.13;;
21800;SDS011;11062;51.164;16.924;2023-07-29T19:18:46;308.88;;;127.60;;
21800;SDS011;11062;51.164;16.924;2023-07-29T19:21:16;320.80;;;128.25;;
21800;SDS011;11062;51.164;16.924;2023-07-29T19:23:44;305.65;;;125.78;;
21800;SDS011;11062;51.164;16.924;2023-07-29T19:26:16;325.23;;;135.52;;
21800;SDS011;11062;51.164;16.924;2023-07-29T19:28:46;324.70;;;129.15;;
21800;SDS011;11062;51.164;16.924;2023-07-29T19:31:16;336.33;;;132.00;;
21800;SDS011;11062;51.164;16.924;2023-07-29T19:33:45;311.90;;;126.80;;
21800;SDS011;11062;51.164;16.924;2023-07-29T19:36:11;334.17;;;131.48;;
21800;SDS011;11062;51.164;16.924;2023-07-29T19:38:43;329.70;;;131.10;;
21800;SDS011;11062;51.164;16.924;2023-07-29T19:48:27;307.90;;;122.82;;
21800;SDS011;11062;51.164;16.924;2023-07-29T19:51:42;314.15;;;122.63;;
21800;SDS011;11062;51.164;16.924;2023-07-29T19:58:58;328.23;;;130.55;;
21800;SDS011;11062;51.164;16.924;2023-07-29T20:02:42;317.42;;;126.38;;
21800;SDS011;11062;51.164;16.924;2023-07-29T21:14:31;309.50;;;110.00;;
21800;SDS011;11062;51.164;16.924;2023-07-29T21:30:24;319.48;;;110.05;;
21800;SDS011;11062;51.164;16.924;2023-07-29T21:34:12;308.55;;;112.35;;
21800;SDS011;11062;51.164;16.924;2023-07-29T22:11:43;301.27;;;107.10;;
21800;SDS011;11062;51.164;16.924;2023-07-29T22:14:09;301.73;;;108.75;;
